• Join FlightAware (Why Join?)
  • Login
  • US Flag 
08:42AM EDT


 

Airport Tracker/Info


-or-


 

Live Flight TrackerFlight Track Log ✈ ASH3733 ✈ 22-Apr-2013 ✈ KIAD - KCHS

Flight Track Log - Related Links

Times and Time Zones

All times are in EDT time to prevent confusion due to time zone crossing. See the ASH3733 flight status page for this flight to view local times or setup timezone preferences in your user account.

Time Position Orientation Groundspeed Altitude Reporting Facility
EDT Latitude Longitude Course Direction KTS MPH feet Rate Location/Type
08:12AM 38.9500 -77.5000 218° Southwest 169 194 1,500  Level Potomac TRACON
08:13AM 38.9167 -77.5833 243° Southwest 244 281 3,600 2,400 Climbing Potomac TRACON
08:14AM 38.8856 -77.6369 233° Southwest 276 318 5,700 2,820 Climbing Washington Center
08:15AM 38.8208 -77.6406 182° South 277 319 8,500 3,000 Climbing Washington Center
08:16AM 38.5425 -77.6466 185° South  Level Estimated
08:16AM 38.7439 -77.6278 173° South 283 326 11,800  Level Washington Center
08:17AM 38.4453 -77.5876 155° Southeast  Level FlightAware Approximate
08:17AM 38.6669 -77.6150 173° South 293 337 14,300  Level Washington Center
08:18AM 38.3366 -77.6301 218° Southwest  Level FlightAware Approximate
08:18AM 38.5972 -77.5600 148° Southeast 277 319 17,000  Level Washington Center
08:19AM 38.5336 -77.4894 139° Southeast 289 333 18,600 1,200 Climbing Washington Center
08:20AM 38.4494 -77.5322 202° Southwest 282 325 19,500 1,140 Climbing Washington Center
08:21AM 38.3711 -77.6097 218° Southwest 311 358 20,900 1,560 Climbing Washington Center
08:22AM 38.3047 -77.7111 230° Southwest 337 388 22,700 1,800 Climbing Washington Center
08:23AM 38.2403 -77.8122 231° Southwest 358 412 24,500 1,380 Climbing Washington Center
08:24AM 38.1717 -77.9161 230° Southwest 379 436 25,500 960 Climbing Washington Center
08:25AM 38.1006 -78.0272 231° Southwest 393 452 26,500 1,140 Climbing Washington Center
08:26AM 38.0294 -78.1331 230° Southwest 400 460 27,800 1,380 Climbing Washington Center
08:27AM 37.9483 -78.2225 221° Southwest 394 453 29,300 1,440 Climbing Washington Center
08:28AM 37.8633 -78.3011 216° Southwest 389 448 30,700 1,500 Climbing Washington Center
08:29AM 37.7694 -78.3897 217° Southwest 382 440 32,300 1,380 Climbing Washington Center
08:30AM 37.6883 -78.4681 217° Southwest 377 434 33,500 1,260 Climbing Washington Center
08:31AM 37.6072 -78.5436 216° Southwest 372 428 34,900 1,200 Climbing Washington Center
08:32AM 37.5303 -78.6164 217° Southwest 367 422 36,000 540 Climbing Washington Center
08:33AM 37.4492 -78.6892 215° Southwest 367 422 36,000  Level Washington Center
08:34AM 37.3786 -78.7542 216° Southwest 362 417 36,000  Level Washington Center
08:35AM 37.3017 -78.8267 217° Southwest 362 417 36,000  Level Washington Center
08:36AM 37.2244 -78.8992 217° Southwest 351 404 36,000  Level Washington Center
08:37AM 37.1475 -78.9714 217° Southwest 351 404 36,000  Level Washington Center
08:38AM 37.0683 -79.0408 215° Southwest 351 404 36,000  Level Washington Center
08:39AM 36.9911 -79.1128 217° Southwest 351 404 36,000  Level Washington Center
08:40AM 36.9072 -79.1922 217° Southwest 351 404 36,000  Level Washington Center
08:41AM 36.8281 -79.2636 216° Southwest 351 404 36,000  Level Washington Center
08:42AM 36.7506 -79.3353 217° Southwest 351 404 36,000  Level Washington Center
08:43AM 36.6711 -79.4064 216° Southwest 351 404 36,000  Level Washington Center
08:44AM 36.5958 -79.4778 217° Southwest 351 404 36,000  Level Washington Center
08:45AM 36.5269 -79.5442 218° Southwest 351 404 36,000  Level Washington Center
08:46AM 36.4472 -79.6150 216° Southwest 351 404 36,000  Level Washington Center
08:47AM 36.4194 -79.6372 213° Southwest 350 403 36,000  Level Atlanta Center
08:48AM 36.3386 -79.7086 215° Southwest 361 415 36,000  Level Atlanta Center
08:49AM 36.2617 -79.7772 216° Southwest 361 415 36,000  Level Atlanta Center
08:50AM 36.1828 -79.8508 217° Southwest 356 410 36,000  Level Atlanta Center
08:51AM 36.0958 -79.9272 215° Southwest 356 410 36,000 -60 Level Atlanta Center
08:52AM 36.0103 -79.9881 210° Southwest 356 410 35,900 -300 Descending Atlanta Center
08:53AM 35.9092 -80.0264 197° South 367 422 35,400 -480 Descending Atlanta Center
08:54AM 35.8083 -80.0697 199° South 380 437 35,000 -720 Descending Atlanta Center
08:55AM 35.7053 -80.1081 197° South 390 449 34,000 -1,020 Descending Atlanta Center
08:56AM 35.6025 -80.1514 199° South 390 449 33,000 -1,020 Descending Atlanta Center
08:57AM 35.5036 -80.1917 198° South 390 449 32,000 -1,020 Descending Atlanta Center
08:58AM 35.4025 -80.2297 197° South 390 449 31,000 -1,020 Descending Atlanta Center
08:59AM 35.3017 -80.2725 199° South 382 440 30,000 -900 Descending Atlanta Center
09:01AM 35.0731 -80.3614 198° South 378 435 28,000 -600 Descending Jacksonville Center
09:02AM 34.9697 -80.4025 198° South 383 441 28,000  Level Jacksonville Center
09:03AM 34.8661 -80.4433 198° South 393 452 28,000 -60 Level Jacksonville Center
09:04AM 34.7564 -80.4869 198° South 393 452 27,900 -60 Descending Jacksonville Center
09:05AM 34.6489 -80.5303 198° South 393 452 27,900 -840 Level Jacksonville Center
09:06AM 34.5494 -80.5683 197° South 393 452 26,300 -1,560 Descending Jacksonville Center
09:07AM 34.4478 -80.6089 198° South 393 452 24,800 -1,500 Descending Jacksonville Center
09:08AM 34.3422 -80.6469 197° South 393 452 23,300 -1,380 Descending Jacksonville Center
09:09AM 34.2364 -80.6872 197° South 398 458 22,100 -1,260 Descending Jacksonville Center
09:10AM 34.1317 -80.6597 168° South 372 428 20,800 -1,380 Descending Jacksonville Center
09:11AM 34.0306 -80.6097 158° South 377 434 19,400 -1,440 Descending Jacksonville Center
09:12AM 33.9317 -80.5597 157° South 382 440 18,000 -1,200 Descending Jacksonville Center
09:13AM 33.8286 -80.5100 158° South 393 452 17,100 -1,020 Descending Jacksonville Center
09:14AM 33.7317 -80.4578 156° South 393 452 16,000 -900 Descending Jacksonville Center
09:15AM 33.6325 -80.4081 157° South 393 452 15,300 -1,440 Descending Jacksonville Center
09:16AM 33.5356 -80.3608 158° South 388 447 13,200 -1,980 Descending Jacksonville Center
09:17AM 33.4406 -80.3114 157° South 382 440 11,400 -1,200 Descending Jacksonville Center
09:18AM 33.3500 -80.2717 160° South 372 428 10,900 -660 Descending Jacksonville Center
09:19AM 33.2642 -80.2569 172° South 344 396 10,100 -1,440 Descending Jacksonville Center
09:20AM 33.1889 -80.2417 170° South 300 345 8,100 -2,040 Descending Jacksonville Center
09:21AM 33.1111 -80.2267 171° South 288 331 6,100 -1,560 Descending Jacksonville Center
09:22AM 33.0422 -80.2214 176° South 279 321 5,000 -1,200 Descending Jacksonville Center
09:23AM 32.9731 -80.2133 174° South 268 308 3,800 -1,140 Descending Jacksonville Center
09:24AM 32.9103 -80.2006 170° South 249 287 2,800 -900 Descending Jacksonville Center
09:25AM 32.8572 -80.1650 151° Southeast 224 258 2,100 -720 Descending Jacksonville Center